createdAt,value
2023-03-05T00:01:24.577Z,100471.69
2023-03-05T00:03:53.584Z,100470.25
2023-03-05T00:06:23.639Z,100464.09
2023-03-05T00:08:52.022Z,100461.34
2023-03-05T00:11:20.194Z,100462.41
2023-03-05T00:13:48.040Z,100456.03
2023-03-05T00:16:16.644Z,100462.66
2023-03-05T00:18:45.109Z,100463.31
2023-03-05T00:21:20.343Z,100459.00
2023-03-05T00:23:50.798Z,100456.22
2023-03-05T00:26:20.757Z,100454.00
2023-03-05T00:28:50.352Z,100458.66
2023-03-05T00:31:18.670Z,100460.22
2023-03-05T00:33:46.554Z,100456.00
2023-03-05T00:36:14.426Z,100457.16
2023-03-05T00:38:42.161Z,100456.13
2023-03-05T00:41:11.377Z,100462.78
2023-03-05T00:43:39.197Z,100449.94
2023-03-05T00:46:07.002Z,100454.41
2023-03-05T00:48:35.543Z,100453.22
2023-03-05T00:51:03.723Z,100448.16
2023-03-05T00:53:31.558Z,100442.78
2023-03-05T00:55:59.852Z,100446.41
2023-03-05T00:58:28.895Z,100445.56
2023-03-05T01:00:58.654Z,100438.44
2023-03-05T01:03:26.472Z,100434.78
2023-03-05T01:05:55.839Z,100436.66
2023-03-05T01:08:23.660Z,100427.84
2023-03-05T01:10:51.691Z,100427.78
2023-03-05T01:13:21.091Z,100425.81
2023-03-05T01:15:51.351Z,100431.06
2023-03-05T01:18:19.646Z,100425.00
2023-03-05T01:20:48.235Z,100425.47
2023-03-05T01:23:16.495Z,100421.84
2023-03-05T01:25:44.577Z,100418.28
2023-03-05T01:28:12.453Z,100419.97
2023-03-05T01:30:40.750Z,100417.44
2023-03-05T01:33:10.111Z,100420.09
2023-03-05T01:35:38.196Z,100413.88
2023-03-05T01:38:06.214Z,100404.34
2023-03-05T01:40:36.997Z,100404.88
2023-03-05T01:43:18.298Z,100405.81
2023-03-05T01:46:01.529Z,100405.09
2023-03-05T01:48:31.551Z,100412.28
2023-03-05T01:50:59.587Z,100403.38
2023-03-05T01:53:29.276Z,100400.63
2023-03-05T01:55:57.391Z,100399.03
2023-03-05T01:58:26.716Z,100399.84
2023-03-05T02:00:55.922Z,100389.75
2023-03-05T02:24:08.799Z,100370.63
2023-03-05T02:26:36.766Z,100363.75
2023-03-05T02:29:06.823Z,100362.66
2023-03-05T02:31:34.761Z,100364.75
2023-03-05T02:34:02.924Z,100354.97
2023-03-05T02:36:30.774Z,100353.25
2023-03-05T02:38:59.231Z,100351.84
2023-03-05T02:41:29.084Z,100347.56
2023-03-05T02:43:58.738Z,100353.56
2023-03-05T02:46:26.993Z,100354.66
2023-03-05T02:48:54.844Z,100349.47
2023-03-05T02:51:22.736Z,100353.56
2023-03-05T02:53:51.193Z,100350.84
2023-03-05T02:56:19.407Z,100346.53
2023-03-05T02:58:48.721Z,100345.47
2023-03-05T03:01:16.755Z,100334.09
2023-03-05T03:03:44.589Z,100345.78
2023-03-05T03:06:12.521Z,100334.72
2023-03-05T03:08:40.266Z,100337.34
2023-03-05T03:11:09.544Z,100333.53
2023-03-05T03:13:37.368Z,100331.44
2023-03-05T03:16:08.408Z,100323.09
2023-03-05T03:18:36.567Z,100325.66
2023-03-05T03:21:04.732Z,100331.50
2023-03-05T03:23:33.048Z,100327.25
2023-03-05T03:26:00.905Z,100321.75
2023-03-05T03:28:28.813Z,100327.34
2023-03-05T03:30:56.694Z,100316.84
2023-03-05T03:33:26.461Z,100317.75
2023-03-05T03:35:54.415Z,100315.06
2023-03-05T03:38:22.212Z,100310.03
2023-03-05T03:40:49.984Z,100310.97
2023-03-05T03:43:17.886Z,100310.13
2023-03-05T03:45:46.174Z,100307.78
2023-03-05T03:48:14.065Z,100302.38
2023-03-05T03:50:43.554Z,100312.00
2023-03-05T03:53:14.234Z,100310.34
2023-03-05T03:55:42.982Z,100301.72
2023-03-05T03:58:11.524Z,100301.88
2023-03-05T04:00:40.642Z,100299.19
2023-03-05T04:03:09.102Z,100297.22
2023-03-05T04:05:37.110Z,100289.75
2023-03-05T04:08:12.069Z,100285.72
2023-03-05T04:10:40.406Z,100281.41
2023-03-05T04:13:08.882Z,100282.53
2023-03-05T04:15:37.195Z,100279.84
2023-03-05T04:18:05.832Z,100274.88
2023-03-05T04:20:33.955Z,100279.19
2023-03-05T04:23:01.966Z,100275.75
2023-03-05T04:25:31.396Z,100277.56
2023-03-05T04:27:59.313Z,100279.19
2023-03-05T04:30:27.426Z,100275.66
2023-03-05T04:32:55.237Z,100278.38
2023-03-05T04:35:23.313Z,100276.72
2023-03-05T04:37:51.359Z,100269.78
2023-03-05T04:40:19.536Z,100274.16
2023-03-05T04:42:48.819Z,100270.75
2023-03-05T04:45:17.325Z,100264.88
2023-03-05T04:47:45.253Z,100269.16
2023-03-05T04:50:13.859Z,100274.41
2023-03-05T04:52:42.348Z,100274.31
2023-03-05T04:55:11.201Z,100272.75
2023-03-05T04:57:39.268Z,100275.09
2023-03-05T05:00:14.421Z,100275.88
2023-03-05T05:02:42.669Z,100273.47
2023-03-05T05:05:11.494Z,100274.31
2023-03-05T05:07:39.473Z,100271.19
2023-03-05T05:10:08.390Z,100267.66
2023-03-05T05:12:36.872Z,100267.63
2023-03-05T05:15:07.426Z,100266.78
2023-03-05T05:17:37.265Z,100262.56
2023-03-05T05:20:06.955Z,100260.94
2023-03-05T05:22:35.520Z,100258.47
2023-03-05T05:25:03.594Z,100253.53
2023-03-05T05:27:31.940Z,100250.13
2023-03-05T05:29:59.865Z,100255.59
2023-03-05T05:32:28.247Z,100253.00
2023-03-05T05:34:58.056Z,100252.28
2023-03-05T05:37:26.539Z,100252.16
2023-03-05T05:39:54.613Z,100257.97
2023-03-05T05:42:24.670Z,100255.88
2023-03-05T05:44:57.986Z,100262.00
2023-03-05T05:47:25.953Z,100256.84
2023-03-05T05:49:53.718Z,100254.19
2023-03-05T05:52:23.023Z,100253.75
2023-03-05T05:54:51.045Z,100255.06
2023-03-05T05:57:19.223Z,100253.41
2023-03-05T05:59:47.333Z,100249.22
2023-03-05T06:02:15.198Z,100243.00
2023-03-05T06:04:43.264Z,100239.50
2023-03-05T06:07:11.302Z,100240.19
2023-03-05T06:09:40.558Z,100245.94
2023-03-05T06:12:08.835Z,100242.72
2023-03-05T06:14:38.235Z,100241.78
2023-03-05T06:17:06.397Z,100244.94
2023-03-05T06:19:34.893Z,100243.97
2023-03-05T06:22:02.643Z,100246.38
2023-03-05T06:24:30.615Z,100250.03
2023-03-05T06:27:00.432Z,100248.53
2023-03-05T06:29:28.355Z,100242.47
2023-03-05T06:31:56.290Z,100225.44
2023-03-05T06:34:24.350Z,100235.19
2023-03-05T06:36:52.226Z,100237.13
2023-03-05T06:39:20.088Z,100232.97
2023-03-05T06:41:47.801Z,100226.03
2023-03-05T06:44:16.789Z,100234.50
2023-03-05T06:46:44.970Z,100229.75
2023-03-05T06:49:12.747Z,100233.44
2023-03-05T06:51:41.056Z,100232.88
2023-03-05T06:54:09.973Z,100241.34
2023-03-05T06:56:38.455Z,100244.69
2023-03-05T06:59:06.636Z,100245.13
2023-03-05T07:01:35.840Z,100241.22
2023-03-05T07:04:04.323Z,100238.09
2023-03-05T07:06:33.304Z,100235.91
2023-03-05T07:09:02.448Z,100241.34
2023-03-05T07:11:30.451Z,100246.09
2023-03-05T07:13:58.227Z,100246.25
2023-03-05T07:16:27.112Z,100249.31
2023-03-05T07:18:58.529Z,100246.47
2023-03-05T07:21:27.220Z,100248.78
2023-03-05T07:23:55.297Z,100251.06
2023-03-05T07:26:23.455Z,100244.91
2023-03-05T07:28:51.101Z,100247.31
2023-03-05T07:31:20.128Z,100244.31
2023-03-05T07:33:47.867Z,100247.75
2023-03-05T07:36:17.268Z,100249.34
2023-03-05T07:38:45.431Z,100244.03
2023-03-05T07:41:14.061Z,100242.06
2023-03-05T07:43:42.050Z,100244.38
2023-03-05T07:46:12.933Z,100247.31
2023-03-05T07:48:40.508Z,100240.75
2023-03-05T07:51:08.954Z,100244.69
2023-03-05T07:53:37.993Z,100244.53
2023-03-05T07:56:06.342Z,100247.13
2023-03-05T07:58:34.031Z,100246.53
2023-03-05T08:01:01.815Z,100243.34
2023-03-05T08:03:29.461Z,100240.06
2023-03-05T08:05:57.083Z,100245.44
2023-03-05T08:08:24.644Z,100250.69
2023-03-05T08:10:53.652Z,100248.53
2023-03-05T08:13:21.384Z,100247.63
2023-03-05T08:15:49.059Z,100237.81
2023-03-05T08:18:19.599Z,100240.78
2023-03-05T08:20:47.388Z,100229.25
2023-03-05T08:23:15.274Z,100221.47
2023-03-05T08:25:42.893Z,100226.25
2023-03-05T08:28:11.977Z,100227.69
2023-03-05T08:30:40.937Z,100223.06
2023-03-05T08:33:08.575Z,100226.94
2023-03-05T08:35:36.332Z,100226.97
2023-03-05T08:38:04.765Z,100229.91
2023-03-05T08:40:32.301Z,100218.38
2023-03-05T08:43:00.332Z,100218.72
2023-03-05T08:45:29.870Z,100219.38
2023-03-05T08:47:57.765Z,100212.84
2023-03-05T08:50:25.995Z,100216.94
2023-03-05T08:52:53.708Z,100221.44
2023-03-05T08:55:21.359Z,100217.72
2023-03-05T08:57:49.150Z,100218.78
2023-03-05T09:00:17.994Z,100221.41
2023-03-05T09:02:47.174Z,100213.03
2023-03-05T09:05:14.807Z,100212.19
2023-03-05T09:07:42.410Z,100208.91
2023-03-05T09:10:12.611Z,100213.50
2023-03-05T09:12:41.250Z,100207.44
2023-03-05T09:15:11.473Z,100202.53
2023-03-05T09:17:42.141Z,100206.16
2023-03-05T09:20:13.893Z,100202.00
2023-03-05T09:22:41.811Z,100199.66
2023-03-05T09:25:10.966Z,100200.06
2023-03-05T09:27:39.171Z,100203.06
2023-03-05T09:30:07.904Z,100199.47
2023-03-05T09:32:35.750Z,100192.25
2023-03-05T09:35:03.795Z,100202.00
2023-03-05T09:37:33.327Z,100199.59
2023-03-05T09:40:01.378Z,100199.09
2023-03-05T09:42:30.609Z,100196.19
2023-03-05T09:45:03.789Z,100200.41
2023-03-05T09:47:41.614Z,100192.31
2023-03-05T09:50:15.351Z,100188.63
2023-03-05T09:52:47.158Z,100184.19
2023-03-05T09:55:18.584Z,100181.19
2023-03-05T09:57:50.068Z,100183.38
2023-03-05T10:00:26.622Z,100178.69
2023-03-05T10:02:58.563Z,100175.13
2023-03-05T10:05:29.671Z,100173.41
2023-03-05T10:08:01.544Z,100169.72
2023-03-05T10:10:38.268Z,100176.25
2023-03-05T10:13:13.033Z,100170.44
2023-03-05T10:15:44.428Z,100167.47
2023-03-05T10:18:20.127Z,100165.41
2023-03-05T10:21:05.705Z,100161.50
2023-03-05T10:23:41.678Z,100154.59
2023-03-05T10:26:16.077Z,100161.28
2023-03-05T10:28:47.557Z,100155.38
2023-03-05T10:31:28.803Z,100148.00
2023-03-05T10:34:00.759Z,100145.22
2023-03-05T10:36:38.948Z,100134.66
2023-03-05T10:39:17.890Z,100136.44
2023-03-05T10:41:54.541Z,100129.88
2023-03-05T10:44:28.059Z,100131.44
2023-03-05T10:46:58.182Z,100137.50
2023-03-05T10:49:28.950Z,100130.53
2023-03-05T10:51:59.565Z,100134.41
2023-03-05T10:54:29.975Z,100122.44
2023-03-05T10:57:04.834Z,100123.50
2023-03-05T10:59:33.304Z,100128.22
2023-03-05T11:02:08.953Z,100124.97
2023-03-05T11:04:37.755Z,100123.94
2023-03-05T11:07:10.263Z,100113.72
2023-03-05T11:09:42.627Z,100119.81
2023-03-05T11:12:16.079Z,100112.03
2023-03-05T11:14:46.384Z,100103.88
2023-03-05T11:17:25.480Z,100112.00
2023-03-05T11:19:55.686Z,100105.69
2023-03-05T11:22:25.236Z,100103.31
2023-03-05T11:25:16.350Z,100109.16
2023-03-05T11:27:51.478Z,100101.44
2023-03-05T11:30:21.699Z,100105.16
2023-03-05T11:32:50.159Z,100101.44
2023-03-05T11:35:30.130Z,100095.94
2023-03-05T11:38:01.739Z,100097.00
2023-03-05T11:40:32.569Z,100092.16
2023-03-05T11:43:03.155Z,100086.03
2023-03-05T11:45:34.381Z,100087.94
2023-03-05T11:48:07.536Z,100082.13
2023-03-05T11:50:36.377Z,100078.53
2023-03-05T11:53:07.142Z,100075.69
2023-03-05T11:55:38.743Z,100067.41
2023-03-05T11:58:14.065Z,100063.38
2023-03-05T12:00:44.403Z,100060.84
2023-03-05T12:03:31.195Z,100055.50
2023-03-05T12:06:04.277Z,100065.09
2023-03-05T12:08:34.221Z,100053.22
2023-03-05T12:11:06.771Z,100041.41
2023-03-05T12:13:36.446Z,100037.09
2023-03-05T12:16:09.977Z,100033.34
2023-03-05T12:18:42.787Z,100028.47
2023-03-05T12:21:16.650Z,100023.13
2023-03-05T12:23:49.266Z,100020.53
2023-03-05T12:26:18.652Z,100014.63
2023-03-05T12:29:04.502Z,100011.72
2023-03-05T12:31:45.637Z,100008.66
2023-03-05T12:34:29.333Z,100001.13
2023-03-05T12:36:58.819Z,99997.47
2023-03-05T12:39:46.128Z,99992.31
2023-03-05T12:42:32.994Z,99999.06
2023-03-05T12:45:25.757Z,99992.19
2023-03-05T12:48:12.175Z,99981.06
2023-03-05T12:50:51.474Z,99981.56
2023-03-05T12:53:21.197Z,99972.47
2023-03-05T12:55:52.198Z,99969.00
2023-03-05T12:58:22.205Z,99964.59
2023-03-05T13:00:54.449Z,99967.06
2023-03-05T13:03:23.977Z,99961.72
2023-03-05T13:05:52.873Z,99953.69
2023-03-05T13:08:22.557Z,99948.28
2023-03-05T13:10:53.819Z,99953.38
2023-03-05T13:13:22.097Z,99949.00
2023-03-05T13:15:51.959Z,99949.72
2023-03-05T13:18:21.005Z,99949.63
2023-03-05T13:20:52.285Z,99945.06
2023-03-05T13:23:22.111Z,99947.66
2023-03-05T13:26:00.172Z,99935.09
2023-03-05T13:28:28.584Z,99941.78
2023-03-05T13:30:59.171Z,99936.59
2023-03-05T13:33:28.305Z,99938.28
2023-03-05T13:35:56.313Z,99935.25
2023-03-05T13:38:26.028Z,99926.44
2023-03-05T13:41:04.455Z,99930.31
2023-03-05T13:43:32.379Z,99926.31
2023-03-05T13:46:01.743Z,99918.81
2023-03-05T13:48:29.495Z,99922.59
2023-03-05T13:50:57.851Z,99914.72
2023-03-05T13:53:26.569Z,99915.78
2023-03-05T13:55:57.174Z,99912.72
2023-03-05T13:58:44.435Z,99913.78
2023-03-05T14:01:15.904Z,99908.88
2023-03-05T14:03:43.856Z,99893.19
2023-03-05T14:06:12.108Z,99898.38
2023-03-05T14:08:41.385Z,99885.44
2023-03-05T14:11:14.450Z,99883.16
2023-03-05T14:13:42.743Z,99876.97
2023-03-05T14:16:12.720Z,99873.66
2023-03-05T14:18:52.959Z,99873.34
2023-03-05T14:21:20.708Z,99869.38
2023-03-05T14:23:54.976Z,99867.66
2023-03-05T14:26:37.628Z,99866.56
2023-03-05T14:29:14.484Z,99863.69
2023-03-05T14:31:48.191Z,99858.28
2023-03-05T14:34:21.832Z,99857.66
2023-03-05T14:36:50.493Z,99847.00
2023-03-05T14:39:38.195Z,99842.75
2023-03-05T14:42:25.304Z,99840.03
2023-03-05T14:44:53.173Z,99834.56
2023-03-05T14:47:21.104Z,99831.53
2023-03-05T14:49:50.229Z,99826.53
2023-03-05T14:52:18.329Z,99823.19
2023-03-05T14:54:46.801Z,99819.34
2023-03-05T14:57:16.299Z,99816.84
2023-03-05T14:59:44.201Z,99809.47
2023-03-05T15:02:15.464Z,99814.47
2023-03-05T15:04:45.613Z,99812.97
2023-03-05T15:07:18.630Z,99803.13
2023-03-05T15:09:46.896Z,99802.31
2023-03-05T15:12:15.981Z,99787.72
2023-03-05T15:14:43.878Z,99788.66
2023-03-05T15:17:17.591Z,99784.56
2023-03-05T15:19:45.797Z,99776.22
2023-03-05T15:22:14.076Z,99780.81
2023-03-05T15:24:43.101Z,99780.22
2023-03-05T15:27:11.035Z,99777.22
2023-03-05T15:29:38.744Z,99778.56
2023-03-05T15:32:06.663Z,99780.09
2023-03-05T15:34:34.776Z,99775.31
2023-03-05T15:37:02.727Z,99763.47
2023-03-05T15:39:30.718Z,99762.38
2023-03-05T15:41:59.805Z,99763.25
2023-03-05T15:44:27.745Z,99769.38
2023-03-05T15:46:56.740Z,99759.19
2023-03-05T15:49:26.040Z,99755.03
2023-03-05T15:51:55.129Z,99759.88
2023-03-05T15:54:24.360Z,99752.94
2023-03-05T15:56:52.755Z,99748.44
2023-03-05T15:59:22.554Z,99740.03
2023-03-05T16:01:51.589Z,99734.16
2023-03-05T16:04:19.837Z,99732.66
2023-03-05T16:06:48.918Z,99741.38
2023-03-05T16:09:17.236Z,99744.19
2023-03-05T16:11:48.136Z,99737.63
2023-03-05T16:14:18.399Z,99735.44
2023-03-05T16:16:49.494Z,99732.88
2023-03-05T16:19:19.144Z,99725.25
2023-03-05T16:21:47.016Z,99723.50
2023-03-05T16:24:15.303Z,99724.22
2023-03-05T16:26:43.320Z,99715.31
2023-03-05T16:29:12.237Z,99715.91
2023-03-05T16:31:41.506Z,99717.09
2023-03-05T16:34:13.967Z,99713.19
2023-03-05T16:36:47.192Z,99704.59
2023-03-05T16:39:15.269Z,99710.00
2023-03-05T16:41:43.390Z,99716.97
2023-03-05T16:44:11.161Z,99715.44
2023-03-05T16:46:41.590Z,99703.00
2023-03-05T16:49:10.085Z,99707.69
2023-03-05T16:51:39.009Z,99703.78
2023-03-05T16:54:09.608Z,99703.38
2023-03-05T16:56:37.869Z,99702.25
2023-03-05T16:59:05.781Z,99702.50
2023-03-05T17:01:33.470Z,99705.72
2023-03-05T17:04:02.160Z,99709.09
2023-03-05T17:06:31.533Z,99711.06
2023-03-05T17:09:01.617Z,99713.28
2023-03-05T17:11:29.687Z,99708.03
2023-03-05T17:13:57.366Z,99710.00
2023-03-05T17:16:25.949Z,99699.69
2023-03-05T17:18:55.901Z,99702.94
2023-03-05T17:21:23.829Z,99692.91
2023-03-05T17:23:51.673Z,99698.63
2023-03-05T17:26:21.198Z,99696.31
2023-03-05T17:28:48.986Z,99698.91
2023-03-05T17:31:16.990Z,99689.28
2023-03-05T17:33:46.439Z,99694.28
2023-03-05T17:36:15.389Z,99693.44
2023-03-05T17:38:43.707Z,99686.59
2023-03-05T17:41:11.572Z,99692.50
2023-03-05T17:43:41.048Z,99689.91
2023-03-05T17:46:12.325Z,99690.19
2023-03-05T17:48:41.768Z,99688.34
2023-03-05T17:51:11.530Z,99699.25
2023-03-05T17:53:42.778Z,99690.56
2023-03-05T17:56:11.739Z,99684.38
2023-03-05T17:58:41.558Z,99689.06
2023-03-05T18:01:09.966Z,99678.66
2023-03-05T18:03:38.760Z,99685.97
2023-03-05T18:06:07.086Z,99680.75
2023-03-05T18:08:34.926Z,99680.16
2023-03-05T18:11:02.916Z,99682.19
2023-03-05T18:13:30.788Z,99684.34
2023-03-05T18:16:02.765Z,99684.09
2023-03-05T18:18:30.641Z,99677.88
2023-03-05T18:20:58.960Z,99674.34
2023-03-05T18:23:26.915Z,99676.84
2023-03-05T18:25:54.652Z,99674.94
2023-03-05T18:28:22.464Z,99671.09
2023-03-05T18:30:52.220Z,99668.97
2023-03-05T18:33:27.245Z,99666.53
2023-03-05T18:35:57.496Z,99658.91
2023-03-05T18:38:26.374Z,99661.31
2023-03-05T18:40:54.681Z,99663.06
2023-03-05T18:43:22.671Z,99655.50
2023-03-05T18:45:50.571Z,99654.91
2023-03-05T18:48:18.415Z,99659.38
2023-03-05T18:50:48.042Z,99647.09
2023-03-05T18:53:15.888Z,99648.75
2023-03-05T18:55:45.039Z,99654.78
2023-03-05T18:58:14.360Z,99645.97
2023-03-05T19:00:43.713Z,99644.94
2023-03-05T19:03:12.536Z,99646.34
2023-03-05T19:05:40.879Z,99639.72
2023-03-05T19:08:09.856Z,99642.84
2023-03-05T19:10:37.748Z,99643.88
2023-03-05T19:13:18.789Z,99633.16
2023-03-05T19:15:46.636Z,99635.75
2023-03-05T19:18:14.460Z,99626.44
2023-03-05T19:20:42.178Z,99635.63
2023-03-05T19:23:11.369Z,99630.97
2023-03-05T19:25:41.389Z,99627.84
2023-03-05T19:28:09.220Z,99628.16
2023-03-05T19:30:37.724Z,99618.78
2023-03-05T19:33:07.115Z,99630.50
2023-03-05T19:35:34.915Z,99615.06
2023-03-05T19:38:02.461Z,99614.06
2023-03-05T19:40:32.016Z,99616.38
2023-03-05T19:43:00.092Z,99607.28
2023-03-05T19:45:27.669Z,99602.81
2023-03-05T19:47:55.589Z,99601.41
2023-03-05T19:50:23.329Z,99598.84
2023-03-05T19:52:51.171Z,99595.00
2023-03-05T19:55:19.006Z,99597.75
2023-03-05T19:57:48.400Z,99595.50
2023-03-05T20:00:16.569Z,99595.75
2023-03-05T20:02:44.393Z,99591.75
2023-03-05T20:05:12.570Z,99589.84
2023-03-05T20:07:40.139Z,99588.63
2023-03-05T20:10:08.327Z,99587.28
2023-03-05T20:12:36.496Z,99582.97
2023-03-05T20:15:06.334Z,99577.38
2023-03-05T20:17:34.128Z,99581.44
2023-03-05T20:20:01.818Z,99576.28
2023-03-05T20:22:29.972Z,99586.44
2023-03-05T20:24:59.255Z,99584.44
2023-03-05T20:27:27.484Z,99583.31
2023-03-05T20:29:55.161Z,99575.81
2023-03-05T20:32:24.668Z,99580.22
2023-03-05T20:34:52.698Z,99574.47
2023-03-05T20:37:20.745Z,99569.41
2023-03-05T20:39:48.613Z,99576.13
2023-03-05T20:42:16.183Z,99565.16
2023-03-05T20:44:44.842Z,99559.50
2023-03-05T20:47:27.684Z,99556.19
2023-03-05T20:49:57.383Z,99561.84
2023-03-05T20:52:25.203Z,99562.19
2023-03-05T20:54:53.012Z,99553.53
2023-03-05T20:57:22.780Z,99556.94
2023-03-05T20:59:51.262Z,99557.84
2023-03-05T21:02:18.977Z,99554.34
2023-03-05T21:04:46.846Z,99553.34
2023-03-05T21:07:16.273Z,99552.50
2023-03-05T21:09:44.041Z,99546.91
2023-03-05T21:12:14.185Z,99539.00
2023-03-05T21:14:41.856Z,99553.53
2023-03-05T21:17:10.361Z,99539.41
2023-03-05T21:19:38.967Z,99543.97
2023-03-05T21:22:06.852Z,99544.03
2023-03-05T21:24:51.916Z,99536.25
2023-03-05T21:27:19.871Z,99535.50
2023-03-05T21:29:47.409Z,99532.25
2023-03-05T21:32:15.577Z,99532.91
2023-03-05T21:34:46.423Z,99527.69
2023-03-05T21:37:14.408Z,99525.63
2023-03-05T21:39:44.788Z,99519.63
2023-03-05T21:42:13.672Z,99524.97
2023-03-05T21:44:41.894Z,99512.63
2023-03-05T21:47:09.518Z,99513.13
2023-03-05T21:49:37.329Z,99506.59
2023-03-05T21:52:09.093Z,99500.69
2023-03-05T21:54:37.096Z,99494.38
2023-03-05T21:57:07.160Z,99490.06
2023-03-05T21:59:35.232Z,99494.72
2023-03-05T22:02:03.338Z,99483.66
2023-03-05T22:04:31.027Z,99486.31
2023-03-05T22:06:58.824Z,99470.03
2023-03-05T22:09:26.669Z,99472.06
2023-03-05T22:11:54.550Z,99469.03
2023-03-05T22:14:23.525Z,99465.63
2023-03-05T22:16:53.356Z,99454.09
2023-03-05T22:19:21.107Z,99455.31
2023-03-05T22:21:49.243Z,99456.91
2023-03-05T22:24:17.195Z,99457.97
2023-03-05T22:26:45.374Z,99447.16
2023-03-05T22:29:13.124Z,99444.50
2023-03-05T22:31:42.245Z,99443.94
2023-03-05T22:34:10.873Z,99441.44
2023-03-05T22:36:38.842Z,99434.66
2023-03-05T22:39:06.454Z,99439.47
2023-03-05T22:41:34.250Z,99433.41
2023-03-05T22:44:02.140Z,99428.53
2023-03-05T22:46:30.165Z,99425.34
2023-03-05T22:49:01.787Z,99424.81
2023-03-05T22:51:31.830Z,99421.94
2023-03-05T22:53:59.542Z,99415.06
2023-03-05T22:56:27.772Z,99410.34
2023-03-05T22:58:55.675Z,99402.91
2023-03-05T23:01:25.163Z,99409.59
2023-03-05T23:03:58.751Z,99404.00
2023-03-05T23:06:27.704Z,99403.81
2023-03-05T23:08:55.499Z,99398.03
2023-03-05T23:11:23.759Z,99391.28
2023-03-05T23:13:51.701Z,99392.38
2023-03-05T23:16:19.401Z,99385.75
2023-03-05T23:18:48.450Z,99386.88
2023-03-05T23:21:16.183Z,99384.66
2023-03-05T23:23:45.251Z,99386.41
2023-03-05T23:26:14.061Z,99376.44
2023-03-05T23:28:42.777Z,99380.50
2023-03-05T23:31:11.463Z,99383.41
2023-03-05T23:33:39.306Z,99384.75
2023-03-05T23:36:07.533Z,99381.16
2023-03-05T23:38:36.808Z,99379.16
2023-03-05T23:41:09.486Z,99378.03
2023-03-05T23:43:37.924Z,99374.75
2023-03-05T23:46:11.062Z,99365.28
2023-03-05T23:48:38.994Z,99369.19
2023-03-05T23:51:08.833Z,99366.94
2023-03-05T23:53:38.772Z,99359.41
2023-03-05T23:56:11.441Z,99363.06
2023-03-05T23:58:40.207Z,99364.81
